Time;durP1;ratioP1;P1;durP2;ratioP2;P2;SDS_P1;SDS_P2;PMS_P1;PMS_P2;Temp;Humidity;BMP_temperature;BMP_pressure;BME280_temperature;BME280_humidity;BME280_pressure;Samples;Min_cycle;Max_cycle;Signal;HPM_P1;HPM_P2
2023/06/17 00:01:25;;;;;;;6.30;4.50;;;21.90;36.80;;;;;;4976626;28;20055;-49
2023/06/17 00:03:53;;;;;;;6.07;4.38;;;21.90;36.90;;;;;;4983843;28;20054;-48
2023/06/17 00:06:20;;;;;;;5.07;3.80;;;21.80;36.70;;;;;;4983584;28;20058;-51
2023/06/17 00:08:47;;;;;;;7.10;4.28;;;21.80;36.70;;;;;;4981880;28;20058;-47
2023/06/17 00:11:14;;;;;;;5.95;4.25;;;21.70;36.80;;;;;;4982454;28;20062;-47
2023/06/17 00:13:43;;;;;;;5.75;4.20;;;21.70;36.80;;;;;;4985380;28;20062;-48
2023/06/17 00:16:12;;;;;;;4.07;3.67;;;21.60;36.90;;;;;;4984413;28;20054;-46
2023/06/17 00:18:41;;;;;;;7.90;4.20;;;21.60;37.00;;;;;;4985022;28;20054;-47
2023/06/17 00:21:08;;;;;;;4.68;3.60;;;21.60;37.20;;;;;;4980299;28;20061;-50
2023/06/17 00:23:36;;;;;;;7.50;4.63;;;21.50;37.40;;;;;;4983414;28;20900;-49
2023/06/17 00:26:03;;;;;;;6.35;4.47;;;21.50;37.50;;;;;;4984197;28;20058;-50
2023/06/17 00:28:30;;;;;;;5.20;3.92;;;21.40;37.60;;;;;;4984330;28;20065;-48
2023/06/17 00:30:59;;;;;;;6.30;4.35;;;21.40;37.80;;;;;;4985075;28;20948;-45
2023/06/17 00:33:26;;;;;;;6.82;4.93;;;21.30;37.90;;;;;;4978198;28;20069;-48
2023/06/17 00:35:53;;;;;;;6.13;3.85;;;21.30;37.90;;;;;;4982532;28;20058;-50
2023/06/17 00:38:20;;;;;;;6.70;4.65;;;21.30;38.10;;;;;;4982191;28;20402;-46
2023/06/17 00:40:48;;;;;;;7.72;4.47;;;21.20;38.10;;;;;;4984143;28;20062;-47
2023/06/17 00:43:15;;;;;;;9.63;4.70;;;21.20;38.30;;;;;;4979022;28;20429;-46
2023/06/17 00:45:42;;;;;;;5.88;4.53;;;21.20;38.40;;;;;;4982624;28;20065;-51
2023/06/17 00:48:12;;;;;;;6.18;4.38;;;21.10;38.50;;;;;;4983114;28;20388;-46
2023/06/17 00:50:39;;;;;;;5.65;4.20;;;21.10;39.20;;;;;;4982196;28;20057;-46
2023/06/17 00:53:07;;;;;;;5.47;3.92;;;21.00;38.60;;;;;;4981194;28;20490;-48
2023/06/17 00:55:39;;;;;;;5.95;4.15;;;21.00;38.70;;;;;;4983914;28;20050;-49
2023/06/17 00:58:07;;;;;;;7.22;4.45;;;21.00;38.80;;;;;;4984046;28;20491;-46
2023/06/17 01:00:34;;;;;;;6.63;4.53;;;20.90;38.80;;;;;;4982192;28;20062;-48
2023/06/17 01:03:02;;;;;;;7.15;4.72;;;20.80;38.90;;;;;;4987521;23;20062;-87
2023/06/17 01:05:32;;;;;;;5.63;4.38;;;20.80;39.00;;;;;;5000086;28;20065;-88
2023/06/17 01:08:14;;;;;;;5.50;4.32;;;20.80;39.00;;;;;;4996994;28;20057;-88
2023/06/17 01:10:49;;;;;;;5.28;4.13;;;20.80;39.20;;;;;;5000764;28;20065;-87
2023/06/17 01:13:18;;;;;;;5.82;4.47;;;20.70;39.10;;;;;;5000764;28;20045;-87
2023/06/17 01:15:46;;;;;;;6.43;4.28;;;20.70;39.10;;;;;;5001033;28;20062;-88
2023/06/17 01:18:17;;;;;;;4.65;4.10;;;20.60;39.10;;;;;;4998208;28;20474;-88
2023/06/17 01:20:47;;;;;;;6.78;5.07;;;20.60;39.20;;;;;;4999007;28;20406;-86
2023/06/17 01:23:16;;;;;;;7.07;4.68;;;20.60;39.20;;;;;;4998356;28;20054;-87
2023/06/17 01:25:45;;;;;;;7.82;4.78;;;20.50;39.20;;;;;;5000706;28;20409;-88
2023/06/17 01:28:16;;;;;;;7.13;4.55;;;20.50;39.30;;;;;;4996680;28;20539;-88
2023/06/17 01:30:44;;;;;;;7.03;5.13;;;20.50;39.40;;;;;;5000126;28;20417;-88
2023/06/17 01:33:13;;;;;;;6.72;4.68;;;20.40;39.40;;;;;;5005562;28;20050;-87
2023/06/17 01:35:46;;;;;;;7.18;4.68;;;20.40;39.60;;;;;;5000736;28;20045;-87
2023/06/17 01:38:20;;;;;;;7.20;5.00;;;20.30;39.60;;;;;;4995292;28;20421;-87
2023/06/17 01:40:53;;;;;;;8.45;5.53;;;20.30;39.60;;;;;;5000833;28;20049;-87
2023/06/17 01:43:21;;;;;;;7.95;5.20;;;20.30;39.60;;;;;;5006497;28;20049;-88
2023/06/17 01:45:49;;;;;;;7.13;5.15;;;20.30;39.60;;;;;;4999817;28;20053;-88
2023/06/17 01:48:17;;;;;;;7.80;5.32;;;20.20;39.50;;;;;;4992591;28;20572;-89
2023/06/17 01:50:44;;;;;;;7.30;5.10;;;20.20;39.50;;;;;;4996582;28;20060;-88
2023/06/17 01:53:11;;;;;;;6.70;4.68;;;20.20;39.50;;;;;;4999657;28;20425;-89
2023/06/17 01:55:39;;;;;;;7.38;5.03;;;20.10;39.60;;;;;;4997212;28;20058;-87
2023/06/17 01:58:08;;;;;;;7.07;4.85;;;20.10;39.60;;;;;;4994991;28;20050;-92
2023/06/17 02:00:36;;;;;;;6.82;4.18;;;20.10;39.80;;;;;;4995840;28;20498;-89
2023/06/17 02:03:09;;;;;;;5.38;4.35;;;20.00;39.70;;;;;;4992618;28;20414;-88
2023/06/17 02:05:37;;;;;;;9.25;4.57;;;20.00;39.80;;;;;;4994305;28;20065;-89
2023/06/17 02:08:05;;;;;;;6.88;5.20;;;20.00;39.80;;;;;;4996614;28;20485;-87
2023/06/17 02:10:33;;;;;;;8.77;4.55;;;20.00;39.80;;;;;;4994142;28;20045;-88
2023/06/17 02:13:03;;;;;;;7.15;4.28;;;20.00;39.80;;;;;;4996878;28;20429;-88
2023/06/17 02:15:32;;;;;;;6.60;4.40;;;20.00;39.80;;;;;;4994971;28;20058;-86
2023/06/17 02:17:59;;;;;;;6.32;4.40;;;20.00;39.90;;;;;;5001015;28;20050;-87
2023/06/17 02:20:27;;;;;;;5.82;4.45;;;19.90;39.90;;;;;;4995542;28;20050;-86
2023/06/17 02:22:54;;;;;;;8.13;5.15;;;19.90;40.10;;;;;;4993494;28;20480;-88
2023/06/17 02:25:22;;;;;;;6.72;4.80;;;19.90;40.20;;;;;;4995550;28;20050;-89
2023/06/17 02:27:50;;;;;;;7.22;5.32;;;19.90;40.30;;;;;;4996970;28;20061;-88
2023/06/17 02:30:17;;;;;;;7.28;4.82;;;19.80;40.20;;;;;;4992005;28;20058;-87
2023/06/17 02:32:46;;;;;;;5.65;4.40;;;19.80;40.20;;;;;;5001410;28;20055;-87
2023/06/17 02:35:13;;;;;;;6.50;4.43;;;19.80;40.30;;;;;;4993783;28;20045;-88
2023/06/17 02:37:41;;;;;;;7.55;4.95;;;19.80;40.40;;;;;;4994263;28;20073;-89
2023/06/17 02:40:10;;;;;;;7.50;5.25;;;19.80;40.30;;;;;;4996014;28;20050;-89
2023/06/17 02:42:38;;;;;;;9.90;4.60;;;19.70;40.20;;;;;;4994445;28;20618;-88
2023/06/17 02:45:07;;;;;;;6.22;4.45;;;19.70;40.20;;;;;;4995615;28;20060;-90
2023/06/17 02:47:34;;;;;;;8.70;4.97;;;19.70;40.40;;;;;;4997210;28;20054;-89
2023/06/17 02:50:03;;;;;;;7.60;4.75;;;19.70;40.50;;;;;;4997893;28;20410;-89
2023/06/17 02:52:30;;;;;;;7.88;4.97;;;19.60;40.70;;;;;;4995478;28;20062;-87
2023/06/17 02:54:58;;;;;;;6.68;4.93;;;19.60;40.80;;;;;;4998071;28;20057;-87
2023/06/17 02:57:25;;;;;;;6.20;4.60;;;19.60;40.90;;;;;;4996770;28;20054;-89
2023/06/17 02:59:52;;;;;;;7.10;4.95;;;19.60;41.10;;;;;;4997132;28;20412;-88
2023/06/17 03:02:20;;;;;;;6.80;4.85;;;19.50;41.10;;;;;;4994055;28;20512;-87
2023/06/17 03:04:48;;;;;;;5.82;4.15;;;19.50;41.10;;;;;;4996343;28;20050;-88
2023/06/17 03:07:18;;;;;;;6.70;4.63;;;19.50;41.10;;;;;;4994429;28;20061;-88
2023/06/17 03:09:45;;;;;;;6.63;4.47;;;19.50;41.10;;;;;;4997092;28;20050;-88
2023/06/17 03:12:13;;;;;;;7.90;4.18;;;19.50;41.00;;;;;;4993491;28;20061;-88
2023/06/17 03:14:40;;;;;;;5.95;4.40;;;19.40;41.10;;;;;;4996487;28;20053;-88
2023/06/17 03:17:10;;;;;;;6.07;4.20;;;19.40;41.30;;;;;;4997069;28;20390;-89
2023/06/17 03:19:37;;;;;;;5.55;4.28;;;19.30;41.40;;;;;;4998038;28;20425;-85
2023/06/17 03:22:05;;;;;;;6.32;4.32;;;19.30;41.40;;;;;;4989903;28;20080;-86
2023/06/17 03:24:34;;;;;;;9.80;4.47;;;19.30;41.40;;;;;;4993614;28;20620;-85
2023/06/17 03:27:02;;;;;;;7.18;4.55;;;19.20;41.40;;;;;;4994117;28;20053;-85
2023/06/17 03:29:30;;;;;;;6.30;4.50;;;19.20;41.30;;;;;;4997917;28;20057;-86
2023/06/17 03:31:57;;;;;;;9.13;5.10;;;19.20;41.30;;;;;;4993389;28;20501;-86
2023/06/17 03:34:25;;;;;;;9.02;5.15;;;19.20;41.40;;;;;;4997984;28;20046;-85
2023/06/17 03:36:53;;;;;;;5.97;4.53;;;19.20;41.40;;;;;;4993617;28;20054;-85
2023/06/17 03:39:21;;;;;;;9.02;4.93;;;19.10;41.40;;;;;;4995984;28;20069;-86
2023/06/17 03:41:49;;;;;;;7.43;4.35;;;19.10;41.60;;;;;;4996060;28;20504;-84
2023/06/17 03:44:17;;;;;;;9.38;4.72;;;19.10;41.70;;;;;;4999009;28;20053;-85
2023/06/17 03:46:44;;;;;;;6.47;4.90;;;19.00;41.70;;;;;;4997152;28;20528;-83
2023/06/17 03:49:11;;;;;;;6.60;4.88;;;19.00;41.80;;;;;;4997329;28;20060;-84
2023/06/17 03:51:39;;;;;;;6.13;4.82;;;19.00;41.90;;;;;;4998893;28;20589;-85
2023/06/17 03:54:06;;;;;;;9.95;6.22;;;19.00;41.90;;;;;;5004137;28;20077;-86
2023/06/17 03:56:33;;;;;;;10.43;6.18;;;19.00;42.00;;;;;;4998726;28;20057;-86
2023/06/17 03:59:02;;;;;;;10.35;7.45;;;19.00;42.00;;;;;;5002217;28;20056;-85
2023/06/17 04:01:30;;;;;;;7.95;5.53;;;19.00;42.10;;;;;;4994106;28;20088;-85
2023/06/17 04:03:57;;;;;;;7.68;5.18;;;19.00;42.20;;;;;;4994859;28;20050;-85
2023/06/17 04:06:25;;;;;;;7.68;5.55;;;18.90;42.30;;;;;;4994226;28;20053;-85
2023/06/17 04:08:53;;;;;;;8.35;4.55;;;18.90;42.50;;;;;;4998613;28;20065;-85
2023/06/17 04:11:20;;;;;;;7.85;5.25;;;18.90;42.60;;;;;;4998864;28;20072;-85
2023/06/17 04:13:48;;;;;;;7.05;5.45;;;18.90;42.60;;;;;;5000125;28;20512;-87
2023/06/17 04:16:16;;;;;;;8.57;5.63;;;18.80;42.50;;;;;;4998947;28;20895;-85
2023/06/17 04:18:44;;;;;;;7.95;4.90;;;18.90;42.60;;;;;;4993337;28;20521;-85
2023/06/17 04:21:11;;;;;;;8.43;5.25;;;18.80;42.50;;;;;;4999565;28;20512;-86
2023/06/17 04:23:39;;;;;;;11.02;5.38;;;18.90;42.60;;;;;;5000159;28;20517;-85
2023/06/17 04:26:06;;;;;;;7.78;5.40;;;18.80;42.60;;;;;;4996216;28;20665;-85
2023/06/17 04:28:34;;;;;;;8.77;5.03;;;18.80;42.60;;;;;;4995482;28;20053;-86
2023/06/17 04:31:02;;;;;;;8.23;5.47;;;18.80;42.70;;;;;;4997042;28;20054;-85
2023/06/17 04:33:31;;;;;;;8.30;5.18;;;18.80;42.70;;;;;;5000920;28;20049;-86
2023/06/17 04:35:59;;;;;;;8.88;5.70;;;18.80;42.80;;;;;;4997249;28;20062;-86
2023/06/17 04:38:26;;;;;;;6.38;5.00;;;18.80;42.80;;;;;;4997498;28;20117;-86
2023/06/17 04:40:54;;;;;;;6.68;5.20;;;18.80;42.90;;;;;;4998207;28;20532;-86
2023/06/17 04:43:22;;;;;;;7.95;5.13;;;18.70;42.90;;;;;;4999369;28;20058;-86
2023/06/17 04:45:50;;;;;;;7.65;5.25;;;18.80;43.00;;;;;;4993561;28;20068;-87
2023/06/17 04:48:17;;;;;;;8.20;4.85;;;18.70;43.00;;;;;;4994430;28;20054;-87
2023/06/17 04:50:47;;;;;;;6.30;4.43;;;18.70;43.20;;;;;;4998388;28;20065;-86
2023/06/17 04:53:15;;;;;;;7.80;4.95;;;18.80;43.40;;;;;;4997608;28;20050;-86
2023/06/17 04:55:43;;;;;;;6.75;5.22;;;18.80;43.50;;;;;;4999551;28;20062;-87
2023/06/17 04:58:11;;;;;;;6.00;4.55;;;18.80;43.80;;;;;;4991328;28;20417;-85
2023/06/17 05:00:39;;;;;;;6.75;4.90;;;18.80;43.90;;;;;;4995253;28;20062;-86
2023/06/17 05:03:07;;;;;;;9.30;4.97;;;18.80;44.10;;;;;;4998606;28;20062;-86
2023/06/17 05:05:34;;;;;;;6.70;4.68;;;18.80;44.30;;;;;;5003389;28;20394;-84
2023/06/17 05:08:02;;;;;;;7.75;4.78;;;18.80;44.40;;;;;;4998644;28;20417;-84
2023/06/17 05:10:30;;;;;;;6.60;5.07;;;18.80;44.50;;;;;;4998507;28;20056;-87
2023/06/17 05:12:57;;;;;;;7.80;4.78;;;18.80;44.50;;;;;;4998043;28;20061;-86
2023/06/17 05:15:25;;;;;;;8.73;5.00;;;18.90;44.70;;;;;;4995975;28;20513;-86
2023/06/17 05:17:52;;;;;;;7.53;5.10;;;18.90;44.80;;;;;;4997049;28;20054;-85
2023/06/17 05:20:20;;;;;;;6.15;4.88;;;18.90;44.80;;;;;;4992107;28;20141;-85
2023/06/17 05:22:47;;;;;;;7.65;5.13;;;18.90;44.80;;;;;;4997123;28;20050;-87
2023/06/17 05:25:15;;;;;;;6.88;4.68;;;18.90;44.90;;;;;;4997463;28;20046;-86
2023/06/17 05:27:43;;;;;;;6.82;5.10;;;18.90;45.10;;;;;;4996577;28;20068;-86
2023/06/17 05:30:11;;;;;;;7.50;5.68;;;19.00;45.20;;;;;;4994134;28;20508;-86
2023/06/17 05:32:38;;;;;;;8.60;5.60;;;19.00;45.30;;;;;;4999310;28;20482;-87
2023/06/17 05:35:07;;;;;;;7.93;5.28;;;19.00;45.30;;;;;;4996336;28;20065;-88
2023/06/17 05:37:34;;;;;;;7.63;5.00;;;19.00;45.40;;;;;;4995919;28;20058;-86
2023/06/17 05:40:02;;;;;;;5.93;4.95;;;19.00;45.50;;;;;;5000515;28;20058;-86
2023/06/17 05:42:31;;;;;;;7.45;4.60;;;19.10;45.70;;;;;;4995233;28;20056;-86
2023/06/17 05:44:58;;;;;;;7.70;5.45;;;19.10;45.80;;;;;;4997396;28;20415;-86
2023/06/17 05:47:25;;;;;;;7.47;5.72;;;19.10;45.80;;;;;;4996473;28;20061;-86
2023/06/17 05:49:52;;;;;;;8.23;5.60;;;19.20;46.00;;;;;;4998723;28;20053;-87
2023/06/17 05:52:20;;;;;;;7.05;5.35;;;19.20;46.10;;;;;;4995481;28;20489;-87
2023/06/17 05:54:47;;;;;;;7.93;5.72;;;19.20;46.10;;;;;;4998787;28;20065;-87
2023/06/17 05:57:15;;;;;;;7.72;5.22;;;19.30;46.20;;;;;;4994667;28;20367;-86
2023/06/17 05:59:43;;;;;;;8.27;5.30;;;19.30;46.30;;;;;;4995323;28;20061;-87
2023/06/17 06:02:11;;;;;;;8.25;5.20;;;19.40;46.50;;;;;;4992373;28;20057;-87
2023/06/17 06:04:38;;;;;;;8.80;4.88;;;19.40;46.50;;;;;;4999829;28;20414;-87
2023/06/17 06:07:05;;;;;;;8.30;5.00;;;19.50;46.60;;;;;;4995439;28;20512;-86
2023/06/17 06:09:32;;;;;;;7.47;5.50;;;19.50;46.60;;;;;;4997719;28;20053;-86
2023/06/17 06:12:00;;;;;;;8.60;4.80;;;19.50;46.80;;;;;;4994466;28;20054;-88
2023/06/17 06:14:27;;;;;;;8.65;6.20;;;19.60;46.90;;;;;;4999329;28;20054;-86
2023/06/17 06:16:56;;;;;;;9.85;6.65;;;19.70;47.40;;;;;;4989285;28;20053;-86
2023/06/17 06:19:23;;;;;;;8.52;5.88;;;19.70;47.80;;;;;;4992324;28;20414;-86
2023/06/17 06:21:50;;;;;;;10.25;6.18;;;19.80;47.60;;;;;;4989323;28;20105;-86
2023/06/17 06:24:17;;;;;;;10.70;5.68;;;19.80;47.70;;;;;;4996082;28;21388;-87
2023/06/17 06:26:45;;;;;;;9.82;6.00;;;19.90;48.20;;;;;;4999151;28;20053;-86
2023/06/17 06:29:13;;;;;;;10.83;6.23;;;19.90;47.70;;;;;;5003072;28;20088;-86
2023/06/17 06:31:42;;;;;;;11.50;7.18;;;20.00;47.90;;;;;;4994228;28;20054;-86
2023/06/17 06:34:11;;;;;;;8.00;6.70;;;20.10;48.20;;;;;;4998144;28;20782;-86
2023/06/17 06:36:38;;;;;;;8.73;6.13;;;20.10;48.00;;;;;;4998297;28;20054;-86
2023/06/17 06:39:06;;;;;;;6.65;5.10;;;20.20;48.10;;;;;;4998345;28;20062;-87
2023/06/17 06:41:33;;;;;;;9.18;7.07;;;20.30;47.90;;;;;;4999987;28;20494;-87
2023/06/17 06:44:01;;;;;;;10.60;6.75;;;20.30;48.00;;;;;;4997062;28;20517;-86
2023/06/17 06:46:28;;;;;;;10.35;6.25;;;20.40;48.10;;;;;;4994865;28;20486;-86
2023/06/17 06:48:55;;;;;;;9.35;6.65;;;20.50;48.20;;;;;;4996005;28;20528;-87
2023/06/17 06:51:24;;;;;;;9.07;6.88;;;20.50;48.00;;;;;;4994933;28;20058;-85
2023/06/17 06:53:52;;;;;;;11.85;6.45;;;20.60;48.30;;;;;;4994233;28;20485;-87
2023/06/17 06:56:19;;;;;;;8.50;5.55;;;20.70;48.30;;;;;;4995094;28;20065;-85
2023/06/17 06:58:47;;;;;;;8.52;5.60;;;20.80;48.20;;;;;;4987155;28;20053;-86
2023/06/17 07:01:14;;;;;;;13.20;6.22;;;20.80;47.90;;;;;;4991931;28;20053;-87
2023/06/17 07:03:41;;;;;;;13.05;7.07;;;20.90;47.80;;;;;;4992087;28;20054;-86
2023/06/17 07:06:09;;;;;;;12.05;7.20;;;21.00;47.70;;;;;;4995375;28;20049;-86
2023/06/17 07:08:37;;;;;;;14.82;7.82;;;21.00;47.50;;;;;;4996574;28;20489;-86
2023/06/17 07:11:05;;;;;;;12.50;8.38;;;21.10;47.20;;;;;;4997293;28;20375;-86
2023/06/17 07:13:32;;;;;;;11.52;7.85;;;21.10;46.70;;;;;;4998518;28;20417;-86
2023/06/17 07:16:00;;;;;;;14.63;8.75;;;21.20;46.40;;;;;;4999141;28;20104;-86
2023/06/17 07:18:27;;;;;;;17.30;7.90;;;21.30;45.80;;;;;;4997746;28;20057;-86
2023/06/17 07:20:54;;;;;;;13.70;8.02;;;21.30;46.00;;;;;;4998457;28;20053;-87
2023/06/17 07:23:22;;;;;;;13.07;7.97;;;21.40;45.80;;;;;;4997902;28;20522;-86
2023/06/17 07:25:50;;;;;;;11.43;6.72;;;21.50;45.80;;;;;;5000200;28;20382;-86
2023/06/17 07:28:18;;;;;;;11.15;7.10;;;21.50;46.00;;;;;;5001995;28;20065;-87
2023/06/17 07:30:45;;;;;;;11.80;7.90;;;21.60;46.00;;;;;;5004983;28;20093;-86
2023/06/17 07:33:13;;;;;;;10.80;7.38;;;21.70;45.50;;;;;;4999936;28;20060;-86
2023/06/17 07:35:40;;;;;;;13.32;7.47;;;21.80;45.50;;;;;;4999199;28;20065;-87
2023/06/17 07:38:07;;;;;;;12.45;6.85;;;21.80;45.70;;;;;;4997182;28;20054;-86
2023/06/17 07:40:36;;;;;;;12.80;6.88;;;21.90;45.70;;;;;;4995009;28;20053;-86
2023/06/17 07:43:04;;;;;;;10.73;6.57;;;22.00;45.40;;;;;;4997197;28;20063;-86
2023/06/17 07:45:32;;;;;;;7.53;5.93;;;22.00;45.10;;;;;;4992949;28;20054;-87
2023/06/17 07:47:59;;;;;;;10.68;6.38;;;22.10;44.90;;;;;;5000141;28;20057;-86
2023/06/17 07:50:27;;;;;;;11.18;6.03;;;22.20;44.90;;;;;;4998306;28;20049;-86
2023/06/17 07:52:54;;;;;;;8.18;6.05;;;22.20;44.50;;;;;;4998268;28;20061;-87
2023/06/17 07:55:21;;;;;;;12.20;6.30;;;22.30;44.80;;;;;;4997591;28;20054;-87
2023/06/17 07:57:49;;;;;;;11.25;6.75;;;22.30;43.90;;;;;;4997422;28;20397;-87
2023/06/17 08:00:18;;;;;;;12.27;5.90;;;22.40;43.10;;;;;;4995710;28;20050;-85
2023/06/17 08:02:45;;;;;;;7.55;5.25;;;22.50;43.50;;;;;;5000030;28;20050;-85
2023/06/17 08:05:12;;;;;;;10.30;5.00;;;22.60;43.70;;;;;;5007878;28;20489;-84
2023/06/17 08:07:40;;;;;;;8.75;5.53;;;22.70;44.10;;;;;;4994184;28;20425;-85
2023/06/17 08:10:08;;;;;;;7.90;5.38;;;22.70;43.80;;;;;;4998604;28;20054;-85
2023/06/17 08:12:36;;;;;;;7.43;5.13;;;22.80;43.60;;;;;;4996969;28;20069;-84
2023/06/17 08:15:04;;;;;;;6.68;4.85;;;22.90;43.40;;;;;;4997573;28;20053;-88
2023/06/17 08:17:32;;;;;;;7.40;5.00;;;23.00;43.20;;;;;;5000670;28;20061;-86
2023/06/17 08:20:00;;;;;;;6.30;4.15;;;23.10;42.40;;;;;;4993291;28;20057;-87
2023/06/17 08:22:28;;;;;;;6.35;3.67;;;23.10;39.20;;;;;;4995156;28;20517;-85
2023/06/17 08:24:55;;;;;;;5.07;3.80;;;23.10;36.70;;;;;;4995349;28;20050;-85
2023/06/17 08:27:23;;;;;;;6.35;4.38;;;23.20;38.20;;;;;;4993646;28;20058;-85
2023/06/17 08:29:50;;;;;;;6.78;3.97;;;23.30;39.00;;;;;;4994913;28;20049;-85
2023/06/17 08:32:17;;;;;;;8.35;4.50;;;23.30;39.00;;;;;;4995342;28;20524;-85
2023/06/17 08:34:46;;;;;;;5.80;4.07;;;23.50;38.70;;;;;;4998897;28;20053;-84
2023/06/17 08:37:13;;;;;;;5.88;4.00;;;23.50;38.80;;;;;;4996457;28;20053;-84
2023/06/17 08:39:42;;;;;;;4.50;3.65;;;23.60;39.30;;;;;;5000252;28;21968;-84
2023/06/17 08:42:10;;;;;;;3.90;3.50;;;23.60;39.30;;;;;;4995085;28;20050;-84
2023/06/17 08:44:42;;;;;;;4.50;3.08;;;23.70;38.00;;;;;;4994671;28;20505;-87
2023/06/17 08:47:14;;;;;;;5.68;3.70;;;23.80;37.20;;;;;;5001415;28;20050;-85
2023/06/17 08:49:43;;;;;;;5.38;3.60;;;23.90;36.10;;;;;;4995811;28;20054;-84
2023/06/17 08:52:14;;;;;;;4.10;3.15;;;23.90;34.70;;;;;;4995547;28;20053;-86
2023/06/17 08:54:42;;;;;;;4.30;3.45;;;24.00;34.80;;;;;;4998247;28;20061;-84
2023/06/17 08:57:12;;;;;;;5.72;4.10;;;24.00;35.20;;;;;;5007991;28;20512;-84
2023/06/17 08:59:40;;;;;;;5.18;3.75;;;24.10;34.40;;;;;;4998772;28;20513;-85
2023/06/17 09:02:10;;;;;;;9.38;4.43;;;24.20;35.30;;;;;;4995969;28;20046;-85
2023/06/17 09:04:37;;;;;;;5.60;3.78;;;24.30;36.30;;;;;;4999205;28;20064;-86
2023/06/17 09:07:06;;;;;;;6.28;3.90;;;24.40;36.70;;;;;;4996308;28;20596;-85
2023/06/17 09:09:36;;;;;;;10.45;4.25;;;24.40;36.40;;;;;;4997599;28;20064;-89
2023/06/17 09:12:05;;;;;;;5.25;3.80;;;24.50;35.80;;;;;;4999664;28;20057;-87
2023/06/17 09:14:33;;;;;;;6.50;4.00;;;24.50;36.00;;;;;;4992739;28;20508;-87
2023/06/17 09:17:01;;;;;;;5.07;3.60;;;24.50;36.40;;;;;;4997731;28;20061;-87
2023/06/17 09:19:31;;;;;;;5.47;3.80;;;24.60;36.60;;;;;;4995276;28;20410;-88
2023/06/17 09:22:05;;;;;;;6.72;4.22;;;24.70;35.60;;;;;;4990156;28;20045;-87
2023/06/17 09:24:32;;;;;;;8.73;4.18;;;24.70;35.10;;;;;;4989789;28;20054;-88
2023/06/17 09:27:03;;;;;;;8.05;4.50;;;24.80;34.30;;;;;;5001142;28;20056;-87
2023/06/17 09:29:31;;;;;;;10.05;4.00;;;24.80;34.30;;;;;;4997298;28;20486;-87
2023/06/17 09:32:02;;;;;;;6.38;4.15;;;24.90;34.70;;;;;;4996179;28;20046;-88
2023/06/17 09:34:29;;;;;;;7.55;3.88;;;24.90;35.30;;;;;;4997429;28;20050;-86
2023/06/17 09:37:00;;;;;;;6.80;3.88;;;25.00;35.60;;;;;;4996662;28;20057;-86
2023/06/17 09:39:31;;;;;;;8.48;4.25;;;25.00;35.50;;;;;;5000707;28;20060;-86
2023/06/17 09:42:09;;;;;;;9.98;4.68;;;25.00;34.60;;;;;;5000665;28;20058;-87
2023/06/17 09:44:37;;;;;;;7.32;4.72;;;25.10;34.90;;;;;;4999076;28;20053;-88
2023/06/17 09:47:08;;;;;;;9.27;4.50;;;25.20;34.30;;;;;;4997445;28;20076;-89
2023/06/17 09:49:36;;;;;;;6.63;4.65;;;25.20;34.40;;;;;;4992841;28;20053;-88
2023/06/17 09:52:05;;;;;;;5.40;3.80;;;25.30;34.20;;;;;;4996604;28;20054;-88
2023/06/17 09:54:33;;;;;;;6.55;4.03;;;25.30;34.60;;;;;;4999264;28;20058;-87
2023/06/17 09:57:02;;;;;;;8.07;4.05;;;25.40;34.60;;;;;;4991906;28;20058;-88
2023/06/17 09:59:31;;;;;;;6.50;4.45;;;25.40;33.50;;;;;;4995621;28;20417;-89
2023/06/17 10:01:59;;;;;;;6.80;4.20;;;25.50;33.80;;;;;;4992282;28;20057;-88
2023/06/17 10:04:26;;;;;;;6.25;4.10;;;25.60;34.30;;;;;;4994240;28;20061;-88
2023/06/17 10:06:54;;;;;;;5.30;3.20;;;25.60;34.50;;;;;;4994887;28;20473;-90
2023/06/17 10:09:22;;;;;;;5.10;3.88;;;25.60;34.50;;;;;;4991615;28;20053;-88
2023/06/17 10:11:53;;;;;;;7.32;4.35;;;25.70;34.00;;;;;;4990136;28;20056;-88
2023/06/17 10:14:26;;;;;;;7.78;4.13;;;25.80;33.30;;;;;;4994541;28;20058;-89
2023/06/17 10:16:55;;;;;;;5.68;3.53;;;25.80;33.70;;;;;;4996715;28;20068;-89
2023/06/17 10:19:26;;;;;;;7.82;4.05;;;25.80;34.10;;;;;;4996720;28;20053;-88
2023/06/17 10:21:57;;;;;;;6.15;4.25;;;25.90;33.60;;;;;;5003217;28;20175;-91
2023/06/17 10:24:26;;;;;;;8.45;4.20;;;25.90;32.80;;;;;;4993368;28;20050;-90
2023/06/17 10:26:54;;;;;;;10.35;4.80;;;26.00;33.00;;;;;;4996296;28;20449;-88
2023/06/17 10:29:21;;;;;;;7.82;4.90;;;26.00;31.20;;;;;;4994966;28;20065;-90
2023/06/17 10:31:50;;;;;;;6.28;4.47;;;26.10;31.60;;;;;;4995051;28;20493;-89
2023/06/17 10:34:22;;;;;;;6.03;4.63;;;26.10;32.10;;;;;;4998851;28;20410;-90
2023/06/17 10:36:51;;;;;;;5.63;4.70;;;26.20;31.60;;;;;;4996225;28;20600;-89
2023/06/17 10:39:18;;;;;;;6.53;4.45;;;26.20;31.20;;;;;;4996821;28;20719;-87
2023/06/17 10:42:00;;;;;;;13.57;4.35;;;26.30;31.10;;;;;;4996450;28;20057;-87
2023/06/17 10:44:40;;;;;;;5.68;4.32;;;26.30;30.00;;;;;;4996221;28;20057;-91
2023/06/17 10:47:17;;;;;;;5.25;4.22;;;26.30;30.50;;;;;;4992261;28;20056;-87
2023/06/17 10:49:48;;;;;;;10.48;4.63;;;26.40;31.00;;;;;;5000335;28;20668;-87
2023/06/17 10:52:17;;;;;;;9.57;5.25;;;26.40;31.10;;;;;;4992548;28;20045;-87
2023/06/17 10:54:46;;;;;;;8.52;4.57;;;26.40;31.20;;;;;;4993792;28;20061;-88
2023/06/17 10:57:14;;;;;;;7.43;4.60;;;26.50;31.60;;;;;;4994728;28;20456;-87
2023/06/17 10:59:41;;;;;;;8.43;4.40;;;26.50;31.00;;;;;;4993386;28;20054;-89
2023/06/17 11:02:09;;;;;;;6.97;4.07;;;26.60;29.90;;;;;;4998633;28;20403;-88
2023/06/17 11:04:37;;;;;;;7.22;4.32;;;26.70;30.30;;;;;;4994706;28;20505;-87
2023/06/17 11:07:06;;;;;;;5.28;3.42;;;26.70;29.90;;;;;;4996818;28;20060;-88
2023/06/17 11:09:34;;;;;;;6.95;3.40;;;26.70;29.40;;;;;;4998883;28;20049;-87
2023/06/17 11:12:03;;;;;;;4.40;3.38;;;26.80;29.10;;;;;;4996457;28;20050;-88
2023/06/17 11:14:32;;;;;;;4.25;3.10;;;26.80;29.30;;;;;;4996921;28;20045;-87
2023/06/17 11:17:00;;;;;;;4.85;3.67;;;26.80;29.30;;;;;;4996643;28;20057;-88
2023/06/17 11:19:27;;;;;;;8.85;4.07;;;26.80;29.90;;;;;;4990216;28;20057;-88
2023/06/17 11:22:02;;;;;;;12.27;3.40;;;26.90;29.30;;;;;;4994776;28;20053;-88
2023/06/17 11:24:31;;;;;;;5.78;3.40;;;27.00;29.60;;;;;;4990785;28;20062;-87
2023/06/17 11:26:59;;;;;;;5.72;3.55;;;27.00;29.00;;;;;;4999203;28;20050;-88
2023/06/17 11:29:27;;;;;;;5.03;3.78;;;27.10;28.80;;;;;;4994124;28;20448;-88
2023/06/17 11:31:55;;;;;;;10.00;3.72;;;27.20;28.60;;;;;;4990631;28;20058;-88
2023/06/17 11:34:23;;;;;;;5.30;3.50;;;27.20;27.70;;;;;;4991814;28;20053;-88
2023/06/17 11:36:53;;;;;;;4.57;3.50;;;27.20;27.00;;;;;;4995881;28;20073;-88
2023/06/17 11:39:22;;;;;;;5.30;4.00;;;27.20;26.80;;;;;;4992456;28;20061;-90
2023/06/17 11:41:52;;;;;;;5.68;3.80;;;27.30;26.00;;;;;;4990062;28;20061;-87
2023/06/17 11:44:19;;;;;;;7.43;3.47;;;27.30;26.40;;;;;;4997489;28;20065;-89
2023/06/17 11:46:50;;;;;;;5.05;3.67;;;27.30;26.80;;;;;;4992839;28;20054;-88
2023/06/17 11:49:17;;;;;;;6.13;3.72;;;27.30;26.90;;;;;;5002055;28;20398;-88
2023/06/17 11:51:48;;;;;;;4.63;3.40;;;27.40;26.80;;;;;;4994835;28;20125;-88
2023/06/17 11:54:19;;;;;;;4.38;3.55;;;27.40;26.10;;;;;;4995693;28;20430;-88
2023/06/17 11:56:49;;;;;;;5.22;3.85;;;27.40;25.00;;;;;;4991252;28;20414;-88
2023/06/17 11:59:19;;;;;;;13.52;7.72;;;27.50;25.70;;;;;;4997114;28;20061;-88
2023/06/17 12:01:47;;;;;;;6.47;4.40;;;27.60;25.90;;;;;;4996496;28;20050;-88
2023/06/17 12:04:15;;;;;;;6.93;3.92;;;27.60;25.70;;;;;;4995073;28;20520;-89
2023/06/17 12:06:42;;;;;;;8.23;3.80;;;27.60;26.00;;;;;;4998466;28;20053;-88
2023/06/17 12:09:10;;;;;;;7.32;4.03;;;27.60;26.20;;;;;;4994708;28;20053;-90
2023/06/17 12:11:41;;;;;;;8.45;4.45;;;27.60;26.80;;;;;;4999163;28;20069;-87
2023/06/17 12:14:10;;;;;;;6.63;4.13;;;27.70;27.10;;;;;;4993597;28;20493;-90
2023/06/17 12:16:43;;;;;;;8.93;3.80;;;27.70;26.90;;;;;;4997140;28;20057;-89
2023/06/17 12:19:20;;;;;;;6.25;3.97;;;27.80;27.50;;;;;;4997563;28;20042;-87
2023/06/17 12:21:47;;;;;;;6.50;4.55;;;27.80;27.80;;;;;;4996721;28;20061;-89
2023/06/17 12:24:15;;;;;;;7.82;3.90;;;27.80;26.80;;;;;;5001674;28;20417;-90
2023/06/17 12:26:44;;;;;;;6.85;3.90;;;27.90;27.40;;;;;;4995256;28;20050;-88
2023/06/17 12:29:13;;;;;;;8.07;4.57;;;27.90;27.50;;;;;;4996302;28;20755;-89
2023/06/17 12:31:42;;;;;;;7.53;4.70;;;28.00;27.40;;;;;;4995684;28;20133;-91
2023/06/17 12:34:10;;;;;;;6.90;4.80;;;28.00;27.20;;;;;;4997026;28;20046;-87
2023/06/17 12:36:37;;;;;;;8.13;4.22;;;28.00;27.30;;;;;;5000065;28;20485;-90
2023/06/17 12:39:05;;;;;;;5.95;4.05;;;28.00;27.60;;;;;;4994668;28;20050;-90
2023/06/17 12:41:33;;;;;;;6.43;4.18;;;28.00;27.80;;;;;;4997226;28;20049;-91
2023/06/17 12:44:00;;;;;;;5.43;3.65;;;28.10;26.70;;;;;;4997824;28;20054;-87
2023/06/17 12:46:28;;;;;;;9.30;4.13;;;28.20;27.10;;;;;;5000233;28;20419;-90
2023/06/17 12:48:57;;;;;;;6.50;3.83;;;28.20;26.30;;;;;;4999252;28;20141;-89
2023/06/17 12:51:24;;;;;;;8.93;3.75;;;28.20;26.70;;;;;;4998378;28;20402;-89